createdAt,value
2018-08-28T00:02:13.645Z,74.90
2018-08-28T00:04:44.042Z,74.90
2018-08-28T00:07:13.392Z,75.00
2018-08-28T00:09:41.829Z,75.40
2018-08-28T00:12:10.264Z,74.80
2018-08-28T00:14:38.732Z,74.20
2018-08-28T00:17:09.192Z,74.80
2018-08-28T00:19:37.470Z,74.90
2018-08-28T00:22:05.836Z,74.40
2018-08-28T00:24:35.151Z,74.20
2018-08-28T00:27:03.519Z,73.90
2018-08-28T00:29:31.929Z,73.80
2018-08-28T00:32:00.266Z,73.90
2018-08-28T00:34:29.577Z,74.30
2018-08-28T00:36:57.960Z,74.40
2018-08-28T00:39:26.386Z,74.60
2018-08-28T00:41:54.784Z,74.70
2018-08-28T00:44:23.185Z,75.00
2018-08-28T00:46:52.553Z,74.90
2018-08-28T00:49:21.966Z,75.00
2018-08-28T00:51:53.375Z,75.80
2018-08-28T00:54:22.836Z,76.00
2018-08-28T00:56:52.476Z,75.60
2018-08-28T00:59:21.875Z,75.60
2018-08-28T01:01:51.271Z,75.80
2018-08-28T01:04:20.714Z,76.60
2018-08-28T01:06:49.875Z,75.50
2018-08-28T01:09:19.200Z,75.80
2018-08-28T01:11:47.590Z,75.50
2018-08-28T01:14:16.272Z,74.80
2018-08-28T01:16:46.653Z,74.90
2018-08-28T01:19:15.061Z,74.70
2018-08-28T01:21:44.487Z,74.90
2018-08-28T01:24:13.849Z,74.90
2018-08-28T01:26:43.288Z,75.20
2018-08-28T01:29:13.651Z,75.10
2018-08-28T01:31:43.170Z,75.40
2018-08-28T01:34:12.749Z,75.10
2018-08-28T01:36:43.116Z,75.20
2018-08-28T01:39:11.554Z,75.30
2018-08-28T01:41:40.926Z,75.80
2018-08-28T01:44:12.471Z,76.30
2018-08-28T01:46:40.829Z,76.60
2018-08-28T01:49:09.200Z,76.90
2018-08-28T01:51:37.554Z,77.00
2018-08-28T01:54:06.077Z,77.40
2018-08-28T01:56:34.455Z,77.10
2018-08-28T01:59:03.876Z,77.20
2018-08-28T02:01:34.741Z,77.70
2018-08-28T02:04:07.211Z,77.40
2018-08-28T02:06:37.588Z,76.80
2018-08-28T02:09:06.966Z,77.20
2018-08-28T02:11:36.289Z,77.10
2018-08-28T02:14:08.561Z,77.40
2018-08-28T02:16:36.943Z,77.10
2018-08-28T02:19:06.399Z,76.80
2018-08-28T02:21:34.769Z,77.30
2018-08-28T02:24:03.188Z,77.30
2018-08-28T02:26:31.674Z,76.50
2018-08-28T02:29:00.056Z,76.00
2018-08-28T02:31:28.455Z,75.30
2018-08-28T02:33:57.833Z,75.30
2018-08-28T02:36:26.248Z,75.10
2018-08-28T02:38:55.730Z,75.10
2018-08-28T02:41:24.232Z,75.10
2018-08-28T02:43:52.700Z,74.90
2018-08-28T02:46:22.146Z,74.90
2018-08-28T02:48:50.808Z,75.00
2018-08-28T02:51:19.205Z,74.80
2018-08-28T02:53:48.779Z,74.70
2018-08-28T02:56:18.245Z,74.70
2018-08-28T02:58:46.559Z,75.20
2018-08-28T03:01:16.529Z,75.40
2018-08-28T03:03:46.229Z,76.20
2018-08-28T03:06:14.585Z,76.50
2018-08-28T03:08:42.927Z,76.90
2018-08-28T03:11:11.406Z,77.50
2018-08-28T03:13:39.834Z,77.60
2018-08-28T03:16:08.414Z,78.30
2018-08-28T03:18:36.634Z,78.70
2018-08-28T03:21:04.966Z,79.10
2018-08-28T03:23:33.380Z,79.30
2018-08-28T03:26:02.781Z,79.10
2018-08-28T03:28:31.183Z,79.40
2018-08-28T03:30:59.640Z,79.20
2018-08-28T03:33:29.065Z,79.40
2018-08-28T03:35:57.482Z,79.70
2018-08-28T03:38:26.847Z,79.90
2018-08-28T03:40:55.375Z,79.70
2018-08-28T03:43:23.856Z,80.20
2018-08-28T03:45:53.213Z,80.40
2018-08-28T03:48:21.570Z,80.20
2018-08-28T03:50:50.100Z,80.00
2018-08-28T03:53:20.956Z,79.80
2018-08-28T03:55:50.584Z,79.60
2018-08-28T03:58:18.969Z,79.60
2018-08-28T04:00:50.431Z,79.50
2018-08-28T04:03:20.749Z,79.30
2018-08-28T04:05:50.316Z,78.70
2018-08-28T04:08:18.808Z,78.40
2018-08-28T04:10:47.416Z,77.80
2018-08-28T04:13:16.898Z,77.70
2018-08-28T04:15:45.357Z,77.50
2018-08-28T04:18:13.844Z,76.90
2018-08-28T04:20:42.328Z,77.60
2018-08-28T04:23:11.511Z,77.10
2018-08-28T04:25:41.969Z,76.90
2018-08-28T04:28:10.429Z,76.80
2018-08-28T04:30:39.965Z,76.80
2018-08-28T04:33:08.270Z,76.80
2018-08-28T04:35:39.782Z,76.70
2018-08-28T04:38:08.204Z,76.80
2018-08-28T04:40:36.619Z,76.90
2018-08-28T04:43:05.174Z,77.30
2018-08-28T04:45:33.546Z,78.20
2018-08-28T04:48:01.925Z,78.00
2018-08-28T04:50:30.965Z,78.20
2018-08-28T04:52:59.887Z,77.80
2018-08-28T04:55:28.326Z,77.90
2018-08-28T04:57:57.903Z,77.90
2018-08-28T05:00:26.230Z,78.30
2018-08-28T05:02:54.616Z,78.10
2018-08-28T05:05:23.325Z,78.30
2018-08-28T05:07:52.728Z,78.50
2018-08-28T05:10:21.071Z,78.50
2018-08-28T05:12:49.370Z,78.20
2018-08-28T05:15:17.629Z,78.20
2018-08-28T05:17:45.936Z,78.00
2018-08-28T05:20:15.332Z,78.00
2018-08-28T05:22:44.841Z,78.40
2018-08-28T05:25:14.329Z,78.70
2018-08-28T05:27:56.961Z,78.00
2018-08-28T05:30:27.497Z,78.00
2018-08-28T05:32:55.828Z,77.80
2018-08-28T05:35:24.212Z,78.10
2018-08-28T05:37:52.522Z,78.00
2018-08-28T05:40:20.799Z,77.90
2018-08-28T05:42:49.093Z,78.20
2018-08-28T05:45:17.398Z,79.10
2018-08-28T05:47:46.812Z,78.80
2018-08-28T05:50:15.075Z,79.30
2018-08-28T05:52:43.370Z,79.60
2018-08-28T05:55:13.092Z,80.00
2018-08-28T05:57:41.526Z,80.30
2018-08-28T06:00:09.915Z,80.60
2018-08-28T06:02:42.729Z,80.10
2018-08-28T06:05:11.221Z,80.80
2018-08-28T06:07:41.578Z,81.20
2018-08-28T06:10:09.985Z,80.40
2018-08-28T06:12:40.346Z,80.50
2018-08-28T06:15:08.784Z,80.00
2018-08-28T06:17:37.129Z,78.80
2018-08-28T06:20:05.738Z,77.30
2018-08-28T06:22:34.119Z,76.50
2018-08-28T06:25:03.577Z,75.00
2018-08-28T06:27:32.021Z,73.80
2018-08-28T06:30:00.419Z,72.80
2018-08-28T06:32:28.930Z,70.70
2018-08-28T06:34:57.301Z,70.00
2018-08-28T06:37:26.498Z,69.60
2018-08-28T06:39:56.713Z,69.10
2018-08-28T06:42:30.491Z,68.40
2018-08-28T06:44:58.880Z,66.70
2018-08-28T06:47:27.373Z,67.00
2018-08-28T06:49:55.842Z,65.40
2018-08-28T06:52:24.264Z,64.40
2018-08-28T06:54:53.239Z,63.90
2018-08-28T06:57:21.719Z,63.20
2018-08-28T06:59:52.125Z,62.20
2018-08-28T07:02:21.984Z,62.60
2018-08-28T07:04:50.374Z,63.00
2018-08-28T07:07:18.763Z,61.30
2018-08-28T07:09:47.131Z,62.20
2018-08-28T07:12:15.564Z,63.60
2018-08-28T07:14:43.917Z,63.80
2018-08-28T07:17:12.817Z,63.40
2018-08-28T07:19:41.252Z,65.20
2018-08-28T07:22:09.715Z,64.00
2018-08-28T07:24:38.214Z,64.20
2018-08-28T07:27:07.746Z,63.50
2018-08-28T07:29:36.181Z,62.90
2018-08-28T07:32:05.596Z,63.60
2018-08-28T07:34:34.065Z,64.60
2018-08-28T07:37:02.512Z,64.30
2018-08-28T07:39:30.891Z,63.50
2018-08-28T07:41:59.370Z,64.00
2018-08-28T07:44:27.739Z,62.80
2018-08-28T07:46:56.081Z,60.90
2018-08-28T07:49:24.522Z,58.20
2018-08-28T07:51:52.840Z,58.80
2018-08-28T07:54:21.294Z,58.00
2018-08-28T07:56:49.804Z,58.30
2018-08-28T07:59:18.245Z,56.60
2018-08-28T08:01:48.341Z,57.00
2018-08-28T08:04:16.833Z,57.70
2018-08-28T08:06:45.201Z,56.00
2018-08-28T08:09:13.560Z,57.40
2018-08-28T08:11:42.033Z,58.20
2018-08-28T08:14:10.484Z,55.40
2018-08-28T08:16:38.888Z,55.40
2018-08-28T08:19:07.365Z,55.20
2018-08-28T08:21:35.847Z,53.90
2018-08-28T08:24:04.398Z,52.90
2018-08-28T08:26:33.038Z,53.20
2018-08-28T08:29:02.652Z,54.70
2018-08-28T08:31:32.132Z,52.30
2018-08-28T08:34:02.775Z,50.40
2018-08-28T08:36:32.191Z,49.80
2018-08-28T08:39:00.601Z,49.10
2018-08-28T08:41:28.920Z,50.20
2018-08-28T08:43:57.326Z,50.10
2018-08-28T08:46:25.726Z,49.20
2018-08-28T08:48:54.089Z,49.80
2018-08-28T08:51:22.485Z,48.50
2018-08-28T08:53:50.841Z,49.40
2018-08-28T08:56:19.374Z,47.10
2018-08-28T08:58:47.808Z,45.90
2018-08-28T09:01:16.174Z,45.60
2018-08-28T09:03:44.657Z,48.80
2018-08-28T09:06:13.173Z,51.10
2018-08-28T09:08:41.581Z,50.20
2018-08-28T09:11:10.109Z,49.20
2018-08-28T09:13:38.490Z,49.30
2018-08-28T09:16:06.972Z,48.50
2018-08-28T09:18:35.432Z,48.20
2018-08-28T09:21:03.840Z,48.20
2018-08-28T09:23:32.245Z,46.80
2018-08-28T09:26:00.593Z,46.50
2018-08-28T09:28:29.969Z,45.10
2018-08-28T09:30:58.476Z,45.60
2018-08-28T09:33:26.844Z,45.50
2018-08-28T09:35:57.317Z,45.70
2018-08-28T09:38:26.518Z,46.50
2018-08-28T09:40:55.811Z,46.20
2018-08-28T09:43:24.197Z,46.50
2018-08-28T09:45:52.752Z,44.70
2018-08-28T09:48:21.202Z,43.60
2018-08-28T09:50:50.598Z,45.50
2018-08-28T09:53:19.136Z,44.30
2018-08-28T09:55:47.523Z,44.80
2018-08-28T09:58:16.879Z,47.30
2018-08-28T10:00:53.704Z,45.40
2018-08-28T10:03:22.244Z,43.20
2018-08-28T10:05:51.300Z,43.40
2018-08-28T10:08:19.781Z,46.10
2018-08-28T10:10:48.958Z,45.30
2018-08-28T10:13:17.492Z,45.60
2018-08-28T10:15:46.434Z,45.20
2018-08-28T10:18:14.812Z,42.90
2018-08-28T10:20:43.249Z,41.80
2018-08-28T10:23:13.303Z,43.70
2018-08-28T10:25:41.735Z,43.60
2018-08-28T10:28:10.247Z,43.70
2018-08-28T10:30:39.647Z,43.40
2018-08-28T10:33:09.050Z,42.30
2018-08-28T10:35:38.470Z,40.40
2018-08-28T10:38:07.900Z,41.80
2018-08-28T10:40:36.330Z,43.70
2018-08-28T10:43:06.809Z,43.60
2018-08-28T10:45:36.008Z,42.10
2018-08-28T10:48:04.592Z,43.30
2018-08-28T10:50:33.000Z,42.10
2018-08-28T10:53:02.653Z,42.60
2018-08-28T10:55:32.102Z,41.20
2018-08-28T10:58:00.515Z,43.80
2018-08-28T11:00:28.969Z,42.10
2018-08-28T11:03:09.258Z,39.40
2018-08-28T11:05:40.084Z,41.90
2018-08-28T11:08:16.586Z,43.20
2018-08-28T11:10:54.624Z,41.10
2018-08-28T11:13:25.131Z,42.90
2018-08-28T11:15:55.136Z,41.10
2018-08-28T11:18:26.899Z,41.60
2018-08-28T11:20:55.540Z,42.60
2018-08-28T11:23:40.283Z,40.90
2018-08-28T11:26:14.696Z,40.00
2018-08-28T11:28:43.361Z,41.30
2018-08-28T11:31:13.810Z,40.30
2018-08-28T11:33:43.472Z,41.80
2018-08-28T11:36:14.352Z,42.40
2018-08-28T11:38:42.905Z,41.30
2018-08-28T11:41:12.327Z,42.00
2018-08-28T11:43:40.789Z,41.40
2018-08-28T11:46:11.186Z,41.40
2018-08-28T11:48:40.612Z,37.40
2018-08-28T11:51:10.006Z,39.30
2018-08-28T11:53:40.873Z,39.50
2018-08-28T11:56:13.685Z,38.90
2018-08-28T11:58:45.185Z,40.20
2018-08-28T12:01:17.492Z,38.30
2018-08-28T12:03:45.936Z,39.40
2018-08-28T12:06:20.493Z,38.70
2018-08-28T12:08:48.918Z,40.20
2018-08-28T12:11:29.154Z,41.20
2018-08-28T12:13:58.431Z,41.60
2018-08-28T12:16:26.864Z,40.30
2018-08-28T12:18:56.360Z,42.50
2018-08-28T12:21:26.769Z,40.70
2018-08-28T12:29:42.501Z,39.50
2018-08-28T12:32:12.647Z,37.40
2018-08-28T12:34:45.553Z,38.10
2018-08-28T12:37:18.083Z,39.80
2018-08-28T12:39:51.432Z,38.90
2018-08-28T12:42:19.929Z,38.40
2018-08-28T12:44:50.362Z,39.10
2018-08-28T12:47:18.721Z,38.00
2018-08-28T12:49:47.244Z,38.40
2018-08-28T12:52:15.677Z,38.60
2018-08-28T12:54:44.998Z,38.10
2018-08-28T12:57:29.759Z,39.40
2018-08-28T13:00:05.856Z,38.90
2018-08-28T13:02:35.344Z,37.50
2018-08-28T13:05:08.153Z,38.80
2018-08-28T13:07:43.061Z,38.50
2018-08-28T13:10:12.444Z,37.60
2018-08-28T13:12:40.960Z,38.30
2018-08-28T13:15:10.965Z,38.60
2018-08-28T13:17:39.390Z,38.20
2018-08-28T13:20:07.803Z,38.20
2018-08-28T13:22:37.131Z,39.10
2018-08-28T13:25:08.160Z,37.60
2018-08-28T13:27:36.676Z,38.00
2018-08-28T13:30:05.145Z,37.50
2018-08-28T13:32:33.554Z,38.10
2018-08-28T13:35:02.301Z,38.70
2018-08-28T13:37:30.642Z,38.40
2018-08-28T13:39:59.123Z,38.40
2018-08-28T13:42:28.518Z,37.80
2018-08-28T13:44:57.916Z,37.10
2018-08-28T13:47:26.316Z,37.30
2018-08-28T13:49:54.704Z,37.40
2018-08-28T13:52:24.581Z,36.80
2018-08-28T13:54:52.939Z,36.00
2018-08-28T13:57:23.492Z,37.00
2018-08-28T13:59:52.974Z,36.00
2018-08-28T14:02:21.232Z,36.60
2018-08-28T14:04:49.685Z,37.00
2018-08-28T14:07:18.112Z,37.00
2018-08-28T14:09:47.507Z,38.30
2018-08-28T14:12:17.116Z,38.60
2018-08-28T14:14:46.693Z,37.40
2018-08-28T14:17:15.016Z,38.60
2018-08-28T14:19:43.428Z,38.30
2018-08-28T14:22:13.921Z,37.30
2018-08-28T14:24:42.313Z,37.30
2018-08-28T14:27:15.713Z,37.50
2018-08-28T14:29:44.077Z,39.10
2018-08-28T14:32:12.497Z,38.50
2018-08-28T14:34:40.938Z,38.30
2018-08-28T14:37:09.328Z,37.70
2018-08-28T14:39:37.648Z,37.20
2018-08-28T14:42:07.374Z,36.30
2018-08-28T14:44:35.870Z,36.80
2018-08-28T14:47:04.371Z,36.40
2018-08-28T14:49:32.724Z,37.40
2018-08-28T14:52:01.206Z,37.40
2018-08-28T14:54:29.938Z,37.40
2018-08-28T14:56:58.295Z,36.60
2018-08-28T14:59:26.635Z,36.20
2018-08-28T15:01:55.082Z,36.50
2018-08-28T15:04:24.254Z,37.00
2018-08-28T15:06:53.814Z,37.00
2018-08-28T15:09:23.043Z,37.00
2018-08-28T15:11:51.438Z,36.80
2018-08-28T15:14:19.787Z,36.40
2018-08-28T15:16:48.306Z,35.90
2018-08-28T15:19:16.810Z,36.50
2018-08-28T15:21:45.272Z,37.10
2018-08-28T15:24:13.664Z,36.60
2018-08-28T15:26:42.386Z,36.50
2018-08-28T15:29:11.813Z,36.20
2018-08-28T15:31:40.240Z,36.50
2018-08-28T15:34:08.752Z,37.70
2018-08-28T15:36:38.361Z,37.00
2018-08-28T15:39:07.400Z,37.30
2018-08-28T15:41:35.852Z,38.00
2018-08-28T15:44:05.479Z,37.00
2018-08-28T15:46:35.006Z,37.80
2018-08-28T15:49:03.389Z,37.20
2018-08-28T15:51:34.930Z,37.50
2018-08-28T15:54:03.328Z,37.60
2018-08-28T15:56:31.688Z,37.80
2018-08-28T15:59:02.186Z,38.80
2018-08-28T16:01:30.661Z,37.40
2018-08-28T16:04:06.829Z,37.60
2018-08-28T16:06:42.914Z,37.50
2018-08-28T16:09:11.315Z,37.80
2018-08-28T16:11:40.682Z,38.00
2018-08-28T16:14:09.129Z,38.40
2018-08-28T16:16:38.865Z,38.30
2018-08-28T16:19:07.341Z,38.00
2018-08-28T16:22:07.489Z,37.90
2018-08-28T16:24:35.846Z,38.50
2018-08-28T16:27:05.862Z,37.50
2018-08-28T16:29:35.794Z,37.70
2018-08-28T16:32:04.180Z,39.00
2018-08-28T16:34:32.521Z,39.10
2018-08-28T16:37:01.112Z,37.80
2018-08-28T16:39:29.498Z,38.00
2018-08-28T16:41:57.737Z,38.50
2018-08-28T16:44:26.173Z,37.70
2018-08-28T16:47:05.291Z,38.90
2018-08-28T16:49:33.668Z,38.50
2018-08-28T16:52:02.144Z,38.80
2018-08-28T16:54:30.525Z,38.70
2018-08-28T16:56:58.881Z,39.60
2018-08-28T16:59:27.308Z,38.60
2018-08-28T17:01:55.665Z,38.40
2018-08-28T17:04:24.379Z,37.90
2018-08-28T17:06:56.234Z,38.50
2018-08-28T17:09:24.681Z,38.80
2018-08-28T17:11:54.215Z,38.40
2018-08-28T17:14:27.594Z,39.60
2018-08-28T17:16:56.052Z,38.90
2018-08-28T17:19:30.554Z,38.20
2018-08-28T17:21:59.940Z,38.40
2018-08-28T17:24:34.459Z,38.90
2018-08-28T17:27:07.584Z,39.40
2018-08-28T17:29:40.959Z,38.80
2018-08-28T17:32:09.409Z,38.90
2018-08-28T17:34:44.232Z,39.00
2018-08-28T17:37:14.719Z,39.10
2018-08-28T17:39:46.941Z,39.00
2018-08-28T17:42:15.679Z,39.40
2018-08-28T17:44:46.405Z,39.40
2018-08-28T17:47:14.841Z,39.90
2018-08-28T17:49:44.638Z,40.00
2018-08-28T17:52:14.118Z,40.20
2018-08-28T17:54:47.513Z,39.60
2018-08-28T18:00:28.137Z,40.40
2018-08-28T18:03:05.056Z,40.40
2018-08-28T18:05:50.905Z,40.50
2018-08-28T18:08:27.844Z,41.30
2018-08-28T18:10:57.343Z,41.60
2018-08-28T18:13:33.299Z,41.90
2018-08-28T18:16:13.358Z,43.20
2018-08-28T18:18:45.857Z,44.20
2018-08-28T18:21:25.919Z,43.80
2018-08-28T18:23:58.595Z,44.40
2018-08-28T18:26:32.963Z,45.60
2018-08-28T18:29:01.594Z,45.10
2018-08-28T18:31:31.158Z,45.30
2018-08-28T18:34:03.126Z,45.90
2018-08-28T18:36:33.241Z,45.90
2018-08-28T18:39:08.262Z,46.40
2018-08-28T18:41:37.365Z,45.90
2018-08-28T18:44:06.880Z,45.90
2018-08-28T18:46:41.193Z,46.50
2018-08-28T18:49:10.017Z,46.40
2018-08-28T18:51:44.461Z,46.50
2018-08-28T18:54:12.994Z,46.90
2018-08-28T18:56:49.291Z,46.40
2018-08-28T18:59:22.903Z,47.20
2018-08-28T19:01:53.265Z,47.70
2018-08-28T19:04:28.383Z,47.10
2018-08-28T19:06:57.774Z,47.70
2018-08-28T19:09:28.265Z,47.30
2018-08-28T19:11:58.433Z,47.30
2018-08-28T19:14:34.628Z,47.50
2018-08-28T19:17:19.488Z,47.70
2018-08-28T19:19:49.032Z,47.60
2018-08-28T19:22:17.964Z,48.20
2018-08-28T19:24:51.746Z,48.00
2018-08-28T19:27:22.721Z,48.20
2018-08-28T19:29:56.844Z,48.20
2018-08-28T19:32:31.884Z,48.60
2018-08-28T19:35:01.753Z,48.30
2018-08-28T19:37:31.250Z,48.70
2018-08-28T19:40:06.045Z,48.60
2018-08-28T19:42:35.583Z,48.80
2018-08-28T19:45:06.501Z,48.70
2018-08-28T19:47:35.484Z,48.50
2018-08-28T19:50:04.464Z,48.50
2018-08-28T19:52:37.219Z,48.60
2018-08-28T19:55:07.021Z,49.00
2018-08-28T19:57:36.179Z,49.00
2018-08-28T20:00:13.790Z,49.50
2018-08-28T20:02:48.180Z,49.40
2018-08-28T20:05:19.716Z,49.50
2018-08-28T20:07:48.235Z,49.70
2018-08-28T20:10:20.845Z,50.90
2018-08-28T20:12:49.768Z,50.10
2018-08-28T20:15:24.773Z,50.00
2018-08-28T20:18:04.352Z,50.30
2018-08-28T20:20:32.771Z,50.50
2018-08-28T20:23:06.156Z,50.80
2018-08-28T20:25:36.508Z,50.70
2018-08-28T20:28:12.501Z,50.20
2018-08-28T20:30:41.863Z,50.40
2018-08-28T20:33:13.440Z,50.10
2018-08-28T20:35:44.307Z,50.80
2018-08-28T20:38:12.873Z,51.00
2018-08-28T20:40:43.267Z,51.30
2018-08-28T20:43:13.025Z,51.60
2018-08-28T20:45:46.646Z,51.60
2018-08-28T20:48:25.408Z,51.70
2018-08-28T20:50:53.940Z,51.30
2018-08-28T20:53:22.447Z,51.80
2018-08-28T20:55:50.867Z,51.80
2018-08-28T20:58:19.151Z,51.50
2018-08-28T21:00:51.485Z,51.20
2018-08-28T21:03:28.932Z,51.30
2018-08-28T21:05:59.272Z,51.30
2018-08-28T21:08:28.652Z,51.20
2018-08-28T21:10:57.043Z,51.70
2018-08-28T21:13:25.588Z,51.10
2018-08-28T21:15:54.300Z,50.90
2018-08-28T21:18:26.482Z,51.30
2018-08-28T21:20:58.651Z,50.90
2018-08-28T21:23:27.169Z,51.80
2018-08-28T21:25:55.523Z,52.10
2018-08-28T21:28:25.881Z,52.40
2018-08-28T21:30:54.250Z,52.00
2018-08-28T21:33:22.716Z,52.30
2018-08-28T21:35:51.334Z,52.90
2018-08-28T21:38:19.791Z,52.90
2018-08-28T21:40:48.253Z,53.40
2018-08-28T21:43:16.615Z,53.00
2018-08-28T21:45:45.032Z,53.20
2018-08-28T21:48:13.538Z,53.50
2018-08-28T21:50:42.056Z,53.50
2018-08-28T21:53:11.521Z,53.70
2018-08-28T21:55:39.981Z,54.20
2018-08-28T21:58:09.237Z,53.90
2018-08-28T22:00:38.613Z,53.70
2018-08-28T22:03:07.019Z,53.40
2018-08-28T22:05:35.364Z,54.00
2018-08-28T22:08:04.912Z,54.40
2018-08-28T22:10:33.572Z,54.50
2018-08-28T22:13:02.006Z,54.70
2018-08-28T22:15:30.331Z,54.20
2018-08-28T22:17:58.677Z,53.90
2018-08-28T22:20:27.021Z,54.00
2018-08-28T22:22:55.350Z,54.30
2018-08-28T22:25:23.742Z,53.80
2018-08-28T22:27:52.134Z,54.10
2018-08-28T22:30:20.527Z,54.20
2018-08-28T22:32:48.963Z,54.50
2018-08-28T22:35:17.329Z,54.30
2018-08-28T22:37:46.783Z,54.80
2018-08-28T22:40:15.112Z,55.10
2018-08-28T22:42:43.549Z,55.30
2018-08-28T22:45:12.045Z,55.20
2018-08-28T22:47:40.365Z,54.80
2018-08-28T22:50:08.796Z,55.00
2018-08-28T22:52:37.142Z,54.90
2018-08-28T22:55:05.575Z,55.30
2018-08-28T22:57:33.927Z,55.40
2018-08-28T23:00:02.361Z,55.40
2018-08-28T23:02:30.752Z,55.20
2018-08-28T23:04:59.115Z,55.00
2018-08-28T23:07:27.437Z,55.30
2018-08-28T23:09:55.730Z,55.10
2018-08-28T23:12:24.298Z,55.10
2018-08-28T23:14:52.558Z,55.50
2018-08-28T23:17:20.845Z,55.70
2018-08-28T23:19:49.402Z,55.70
2018-08-28T23:22:17.695Z,56.10
2018-08-28T23:24:46.027Z,55.60
2018-08-28T23:27:14.426Z,55.60
2018-08-28T23:29:42.736Z,55.40
2018-08-28T23:32:11.524Z,55.20
2018-08-28T23:34:39.818Z,55.40
2018-08-28T23:37:08.135Z,55.10
2018-08-28T23:39:36.825Z,55.30
2018-08-28T23:42:05.143Z,55.30
2018-08-28T23:44:33.506Z,55.60
2018-08-28T23:47:01.830Z,55.80
2018-08-28T23:49:30.171Z,56.90
2018-08-28T23:51:58.530Z,56.40
2018-08-28T23:54:26.836Z,56.30
2018-08-28T23:56:55.183Z,56.50
2018-08-28T23:59:23.595Z,56.90
